Time;durP1;ratioP1;P1;durP2;ratioP2;P2;SDS_P1;SDS_P2;PMS_P1;PMS_P2;Temp;Humidity;BMP_temperature;BMP_pressure;BME280_temperature;BME280_humidity;BME280_pressure;Samples;Min_cycle;Max_cycle;Signal;HPM_P1;HPM_P2
2023/04/14 00:00:49;;;;;;;;;;;;;;;8.28;100.00;99545.47;5053342;28;20381;-76
2023/04/14 00:03:16;;;;;;;;;;;;;;;8.29;100.00;99541.34;5053279;28;19913;-77
2023/04/14 00:05:41;;;;;;;;;;;;;;;8.33;100.00;99539.06;5052031;28;20007;-74
2023/04/14 00:08:06;;;;;;;;;;;;;;;8.34;100.00;99532.09;5053397;28;19979;-73
2023/04/14 00:10:32;;;;;;;;;;;;;;;8.32;100.00;99522.47;5051732;28;19912;-74
2023/04/14 00:12:57;;;;;;;;;;;;;;;8.30;100.00;99520.16;5052125;28;20325;-76
2023/04/14 00:15:22;;;;;;;;;;;;;;;8.28;100.00;99519.06;5053736;28;20056;-75
2023/04/14 00:17:47;;;;;;;;;;;;;;;8.29;100.00;99517.78;5053460;28;19921;-73
2023/04/14 00:20:13;;;;;;;;;;;;;;;8.29;100.00;99524.25;5053225;28;19920;-74
2023/04/14 00:22:38;;;;;;;;;;;;;;;8.31;100.00;99518.84;5053166;28;20299;-75
2023/04/14 00:25:03;;;;;;;;;;;;;;;8.33;100.00;99509.81;5035083;28;19912;-74
2023/04/14 00:27:29;;;;;;;;;;;;;;;8.34;100.00;99520.72;5051993;28;20366;-75
2023/04/14 00:29:55;;;;;;;;;;;;;;;8.37;100.00;99507.53;5051882;28;19920;-72
2023/04/14 00:32:20;;;;;;;;;;;;;;;8.32;100.00;99511.88;5053237;28;19912;-73
2023/04/14 00:34:45;;;;;;;;;;;;;;;8.33;100.00;99513.44;5051697;28;19967;-74
2023/04/14 00:37:11;;;;;;;;;;;;;;;8.36;100.00;99511.69;5053375;28;19963;-74
2023/04/14 00:39:36;;;;;;;;;;;;;;;8.40;100.00;99503.72;5052939;28;19968;-75
2023/04/14 00:42:02;;;;;;;;;;;;;;;8.45;100.00;99513.59;5053167;28;19919;-74
2023/04/14 00:44:27;;;;;;;;;;;;;;;8.47;100.00;99511.03;5051946;28;19913;-74
2023/04/14 00:46:52;;;;;;;;;;;;;;;8.47;100.00;99506.13;5053161;28;19912;-74
2023/04/14 00:49:18;;;;;;;;;;;;;;;8.50;100.00;99510.03;5052001;28;19912;-74
2023/04/14 00:51:44;;;;;;;;;;;;;;;8.48;100.00;99499.16;5055616;28;19912;-75
2023/04/14 00:54:10;;;;;;;;;;;;;;;8.45;100.00;99496.53;5055151;28;19921;-75
2023/04/14 00:56:35;;;;;;;;;;;;;;;8.43;100.00;99497.00;5038711;28;19912;-73
2023/04/14 00:59:01;;;;;;;;;;;;;;;8.37;100.00;99502.63;5056571;28;20285;-75
2023/04/14 01:01:29;;;;;;;;;;;;;;;8.36;100.00;99506.75;5056052;28;20027;-74
2023/04/14 01:03:55;;;;;;;;;;;;;;;8.27;100.00;99500.41;5055501;28;19913;-75
2023/04/14 01:06:20;;;;;;;;;;;;;;;8.28;100.00;99502.75;5055484;28;19920;-74
2023/04/14 01:08:46;;;;;;;;;;;;;;;8.30;100.00;99508.75;5053865;28;19916;-74
2023/04/14 01:11:14;;;;;;;;;;;;;;;8.29;100.00;99512.88;5053332;28;19966;-74
2023/04/14 01:13:42;;;;;;;;;;;;;;;8.30;100.00;99507.97;5054476;28;20008;-75
2023/04/14 01:16:18;;;;;;;;;;;;;;;8.21;100.00;99510.94;5054999;28;19995;-73
2023/04/14 01:18:46;;;;;;;;;;;;;;;8.16;100.00;99505.97;5053499;28;19919;-74
2023/04/14 01:21:16;;;;;;;;;;;;;;;8.14;100.00;99503.59;5054154;28;19920;-75
2023/04/14 01:23:46;;;;;;;;;;;;;;;8.16;100.00;99505.97;5054290;28;19928;-76
2023/04/14 01:26:11;;;;;;;;;;;;;;;8.21;100.00;99511.72;5036160;28;19975;-75
2023/04/14 01:28:42;;;;;;;;;;;;;;;8.22;100.00;99523.88;5054134;28;20378;-73
2023/04/14 01:31:25;;;;;;;;;;;;;;;8.27;100.00;99526.03;5052722;28;20285;-76
2023/04/14 01:33:54;;;;;;;;;;;;;;;8.17;100.00;99527.44;5054776;28;19954;-75
2023/04/14 01:36:21;;;;;;;;;;;;;;;8.15;100.00;99519.38;5054971;28;20293;-73
2023/04/14 01:38:46;;;;;;;;;;;;;;;8.10;100.00;99511.53;5055839;28;19916;-74
2023/04/14 01:41:12;;;;;;;;;;;;;;;8.10;100.00;99511.53;5055170;28;19913;-74
2023/04/14 01:43:38;;;;;;;;;;;;;;;8.11;100.00;99515.97;5055831;28;19919;-75
2023/04/14 01:46:06;;;;;;;;;;;;;;;8.15;100.00;99510.84;5054997;28;19912;-74
2023/04/14 01:48:31;;;;;;;;;;;;;;;8.22;100.00;99504.75;5055855;28;19969;-75
2023/04/14 01:50:56;;;;;;;;;;;;;;;8.28;100.00;99502.75;5055820;28;20004;-75
2023/04/14 01:53:21;;;;;;;;;;;;;;;8.31;100.00;99496.06;5054464;28;20343;-74
2023/04/14 01:55:48;;;;;;;;;;;;;;;8.32;100.00;99491.94;5054116;28;19921;-74
2023/04/14 01:58:13;;;;;;;;;;;;;;;8.28;100.00;99482.06;5054396;28;19912;-75
2023/04/14 02:00:38;;;;;;;;;;;;;;;8.20;100.00;99487.41;5055621;28;20012;-76
2023/04/14 02:03:04;;;;;;;;;;;;;;;8.15;100.00;99490.94;5053742;28;19947;-73
2023/04/14 02:05:29;;;;;;;;;;;;;;;8.16;100.00;99474.66;5055889;28;19912;-74
2023/04/14 02:07:55;;;;;;;;;;;;;;;8.11;100.00;99484.66;5054161;28;20011;-74
2023/04/14 02:10:20;;;;;;;;;;;;;;;8.14;100.00;99483.66;5054504;28;20000;-73
2023/04/14 02:12:47;;;;;;;;;;;;;;;8.18;100.00;99495.66;5055584;28;20297;-73
2023/04/14 02:15:14;;;;;;;;;;;;;;;8.18;100.00;99478.56;5054083;28;19921;-74
2023/04/14 02:17:40;;;;;;;;;;;;;;;8.16;100.00;99466.13;5055159;28;19924;-74
2023/04/14 02:20:09;;;;;;;;;;;;;;;8.08;100.00;99470.63;5055612;28;19913;-73
2023/04/14 02:22:34;;;;;;;;;;;;;;;8.09;100.00;99492.13;5055112;28;19920;-75
2023/04/14 02:24:59;;;;;;;;;;;;;;;8.10;100.00;99488.00;5053687;28;19913;-75
2023/04/14 02:27:31;;;;;;;;;;;;;;;8.16;100.00;99491.75;5053831;28;19913;-74
2023/04/14 02:29:56;;;;;;;;;;;;;;;8.21;100.00;99482.50;5054924;28;20305;-75
2023/04/14 02:32:22;;;;;;;;;;;;;;;8.22;100.00;99476.28;5054975;28;19913;-75
2023/04/14 02:35:07;;;;;;;;;;;;;;;8.22;100.00;99479.13;5054061;28;19917;-73
2023/04/14 02:37:35;;;;;;;;;;;;;;;8.20;100.00;99473.19;5054775;28;19912;-73
2023/04/14 02:40:02;;;;;;;;;;;;;;;8.19;100.00;99470.81;5053860;28;19936;-75
2023/04/14 02:42:27;;;;;;;;;;;;;;;8.11;100.00;99470.44;5054977;28;19995;-75
2023/04/14 02:44:59;;;;;;;;;;;;;;;8.10;100.00;99468.88;5053700;28;20381;-75
2023/04/14 02:47:43;;;;;;;;;;;;;;;8.14;100.00;99468.66;5054623;28;19913;-74
2023/04/14 02:50:10;;;;;;;;;;;;;;;8.16;100.00;99472.56;5053648;28;20043;-73
2023/04/14 02:52:35;;;;;;;;;;;;;;;8.20;100.00;99473.19;5054625;28;19921;-75
2023/04/14 02:55:01;;;;;;;;;;;;;;;8.24;100.00;99462.34;5052682;28;20384;-75
2023/04/14 02:57:26;;;;;;;;;;;;;;;8.29;100.00;99467.34;5053368;28;19966;-73
2023/04/14 02:59:51;;;;;;;;;;;;;;;8.31;100.00;99455.47;5054491;28;20362;-74
2023/04/14 03:02:17;;;;;;;;;;;;;;;8.33;100.00;99456.50;5053304;28;19958;-74
2023/04/14 03:04:43;;;;;;;;;;;;;;;8.37;100.00;99465.63;5053239;28;20376;-74
2023/04/14 03:07:08;;;;;;;;;;;;;;;8.40;100.00;99466.69;5053330;28;19917;-74
2023/04/14 03:09:33;;;;;;;;;;;;;;;8.39;100.00;99457.38;5052837;28;19913;-74
2023/04/14 03:11:59;;;;;;;;;;;;;;;8.39;100.00;99463.06;5053093;28;19923;-74
2023/04/14 03:14:25;;;;;;;;;;;;;;;8.42;100.00;99471.88;5053138;28;19940;-73
2023/04/14 03:16:53;;;;;;;;;;;;;;;8.43;100.00;99464.91;5054003;28;19960;-74
2023/04/14 03:19:21;;;;;;;;;;;;;;;8.41;100.00;99461.78;5054075;28;19988;-75
2023/04/14 03:21:46;;;;;;;;;;;;;;;8.39;100.00;99459.44;5053903;28;19919;-74
2023/04/14 03:24:13;;;;;;;;;;;;;;;8.38;100.00;99455.81;5052441;28;19913;-74
2023/04/14 03:26:38;;;;;;;;;;;;;;;8.38;100.00;99452.19;5052587;28;19913;-73
2023/04/14 03:29:03;;;;;;;;;;;;;;;8.39;100.00;99450.91;5052737;28;19913;-74
2023/04/14 03:31:30;;;;;;;;;;;;;;;8.41;100.00;99442.63;5052515;28;19916;-73
2023/04/14 03:33:56;;;;;;;;;;;;;;;8.43;100.00;99450.69;5052650;28;19924;-73
2023/04/14 03:36:21;;;;;;;;;;;;;;;8.44;100.00;99441.66;5053576;28;19923;-75
2023/04/14 03:38:48;;;;;;;;;;;;;;;8.45;100.00;99451.75;5052411;28;20003;-74
2023/04/14 03:41:13;;;;;;;;;;;;;;;8.45;100.00;99448.91;5052357;28;19912;-73
2023/04/14 03:43:38;;;;;;;;;;;;;;;8.45;100.00;99446.06;5053478;28;19966;-74
2023/04/14 03:46:04;;;;;;;;;;;;;;;8.46;100.00;99444.75;5052255;28;20445;-74
2023/04/14 03:48:30;;;;;;;;;;;;;;;8.47;100.00;99442.69;5052303;28;20378;-73
2023/04/14 03:50:56;;;;;;;;;;;;;;;8.47;100.00;99442.69;5052352;28;19920;-72
2023/04/14 03:53:21;;;;;;;;;;;;;;;8.47;100.00;99443.47;5052344;28;19924;-74
2023/04/14 03:55:48;;;;;;;;;;;;;;;8.48;100.00;99442.19;5052134;28;19963;-74
2023/04/14 03:58:13;;;;;;;;;;;;;;;8.48;100.00;99444.25;5035797;28;19913;-73
2023/04/14 04:00:38;;;;;;;;;;;;;;;8.47;100.00;99434.94;5051995;28;19912;-73
2023/04/14 04:03:04;;;;;;;;;;;;;;;8.36;100.00;99432.75;5035413;28;20054;-74
2023/04/14 04:05:30;;;;;;;;;;;;;;;8.48;100.00;99441.41;5053401;28;19913;-72
2023/04/14 04:07:57;;;;;;;;;;;;;;;8.43;100.00;99427.91;5052997;28;19912;-73
2023/04/14 04:10:23;;;;;;;;;;;;;;;8.44;100.00;99440.84;5053118;28;19913;-74
2023/04/14 04:12:48;;;;;;;;;;;;;;;8.45;100.00;99433.88;5053613;28;19919;-75
2023/04/14 04:15:13;;;;;;;;;;;;;;;8.47;100.00;99434.94;5053340;28;19917;-73
2023/04/14 04:17:40;;;;;;;;;;;;;;;8.43;100.00;99433.59;5035411;28;19962;-73
2023/04/14 04:20:07;;;;;;;;;;;;;;;8.44;100.00;99433.09;5053251;28;19920;-74
2023/04/14 04:22:32;;;;;;;;;;;;;;;8.46;100.00;99421.22;5051729;28;19913;-74
2023/04/14 04:24:58;;;;;;;;;;;;;;;8.48;100.00;99427.19;5054545;28;20350;-73
2023/04/14 04:27:23;;;;;;;;;;;;;;;8.48;100.00;99427.19;5057163;28;19913;-73
2023/04/14 04:29:49;;;;;;;;;;;;;;;8.50;100.00;99436.03;5057304;28;19913;-74
2023/04/14 04:32:14;;;;;;;;;;;;;;;8.52;100.00;99428.53;5038997;28;19920;-74
2023/04/14 04:34:39;;;;;;;;;;;;;;;8.51;100.00;99421.25;5055645;28;19917;-73
2023/04/14 04:37:05;;;;;;;;;;;;;;;8.49;100.00;99429.53;5057147;28;19917;-74
2023/04/14 04:39:32;;;;;;;;;;;;;;;8.51;100.00;99434.75;5056968;28;19913;-74
2023/04/14 04:42:02;;;;;;;;;;;;;;;8.50;100.00;99433.16;5057534;28;19917;-73
2023/04/14 04:44:28;;;;;;;;;;;;;;;8.47;100.00;99434.94;5055569;28;19928;-75
2023/04/14 04:46:54;;;;;;;;;;;;;;;8.46;100.00;99424.06;5057295;28;19917;-78
2023/04/14 04:49:41;;;;;;;;;;;;;;;8.47;100.00;99431.31;5055548;28;19913;-78
2023/04/14 04:52:07;;;;;;;;;;;;;;;8.45;100.00;99426.13;5056659;28;19913;-77
2023/04/14 04:54:34;;;;;;;;;;;;;;;8.47;100.00;99423.56;5057015;28;19928;-79
2023/04/14 04:57:00;;;;;;;;;;;;;;;8.52;100.00;99424.91;5057837;28;19913;-82
2023/04/14 04:59:25;;;;;;;;;;;;;;;8.51;100.00;99424.09;5056931;28;20010;-81
2023/04/14 05:01:51;;;;;;;;;;;;;;;8.54;100.00;99425.19;5057600;28;19913;-83
2023/04/14 05:04:17;;;;;;;;;;;;;;;8.59;100.00;99416.72;5055663;28;19921;-79
2023/04/14 05:06:44;;;;;;;;;;;;;;;8.56;100.00;99423.38;5055563;28;20329;-77
2023/04/14 05:09:10;;;;;;;;;;;;;;;8.53;100.00;99417.91;5057376;28;19916;-77
2023/04/14 05:11:36;;;;;;;;;;;;;;;8.53;100.00;99420.78;5057065;28;20392;-77
2023/04/14 05:14:02;;;;;;;;;;;;;;;8.55;100.00;99421.84;5057813;28;19928;-79
2023/04/14 05:16:32;;;;;;;;;;;;;;;8.61;100.00;99425.53;5059618;28;19916;-76
2023/04/14 05:19:00;;;;;;;;;;;;;;;8.68;100.00;99424.31;5063482;28;19962;-76
2023/04/14 05:21:27;;;;;;;;;;;;;;;8.71;100.00;99421.22;5057140;28;20346;-77
2023/04/14 05:23:53;;;;;;;;;;;;;;;8.72;100.00;99419.94;5058208;28;19928;-74
2023/04/14 05:26:24;;;;;;;;;;;;;;;8.74;100.00;99422.31;5057716;28;20013;-74
2023/04/14 05:29:04;;;;;;;;;;;;;;;8.81;100.00;99425.47;5056003;28;19935;-75
2023/04/14 05:31:29;;;;;;;;;;;;;;;8.91;100.00;99433.84;5056369;28;19967;-74
2023/04/14 05:33:56;;;;;;;;;;;;;;;8.95;100.00;99420.19;5056454;28;20021;-74
2023/04/14 05:36:22;;;;;;;;;;;;;;;9.03;100.00;99421.28;5037244;28;19912;-74
2023/04/14 05:38:48;;;;;;;;;;;;;;;9.08;100.00;99426.25;5056015;28;19923;-75
2023/04/14 05:41:14;;;;;;;;;;;;;;;9.10;100.00;99429.41;5071192;28;20019;-75
2023/04/14 05:43:39;;;;;;;;;;;;;;;9.12;100.00;99430.44;5050241;28;19928;-75
2023/04/14 05:46:04;;;;;;;;;;;;;;;9.18;100.00;99410.53;5033042;28;19917;-74
2023/04/14 05:48:32;;;;;;;;;;;;;;;9.21;100.00;99409.53;5033925;28;20016;-75
2023/04/14 05:50:57;;;;;;;;;;;;;;;9.23;100.00;99409.81;5033665;28;19917;-75
2023/04/14 05:53:22;;;;;;;;;;;;;;;9.27;100.00;99413.22;5033414;28;20008;-75
2023/04/14 05:55:49;;;;;;;;;;;;;;;9.29;100.00;99404.94;5032390;28;19967;-75
2023/04/14 05:58:15;;;;;;;;;;;;;;;9.31;100.00;99405.19;5031609;28;20004;-77
2023/04/14 06:00:40;;;;;;;;;;;;;;;9.35;100.00;99402.16;5032497;28;20008;-76
2023/04/14 06:03:05;;;;;;;;;;;;;;;9.39;100.00;99389.22;5033871;28;20264;-76
2023/04/14 06:05:32;;;;;;;;;;;;;;;9.46;100.00;99393.66;5032143;28;19956;-76
2023/04/14 06:07:57;;;;;;;;;;;;;;;9.48;100.00;99391.88;5043179;28;19916;-74
2023/04/14 06:10:23;;;;;;;;;;;;;;;9.53;100.00;99393.97;5052679;28;19921;-74
2023/04/14 06:12:48;;;;;;;;;;;;;;;9.50;100.00;99386.41;5054013;28;19913;-75
2023/04/14 06:15:14;;;;;;;;;;;;;;;9.50;100.00;99383.56;5052451;28;20394;-75
2023/04/14 06:17:40;;;;;;;;;;;;;;;9.54;100.00;99377.66;5047838;28;19964;-76
2023/04/14 06:20:09;;;;;;;;;;;;;;;9.60;100.00;99367.81;5052051;28;19966;-76
2023/04/14 06:22:35;;;;;;;;;;;;;;;9.66;100.00;99365.00;5059190;28;19913;-77
2023/04/14 06:25:01;;;;;;;;;;;;;;;9.68;100.00;99354.66;5055319;28;19920;-77
2023/04/14 06:27:28;;;;;;;;;;;;;;;9.73;100.00;99352.38;5054851;28;19977;-75
2023/04/14 06:29:56;;;;;;;;;;;;;;;9.82;100.00;99352.16;5055030;28;19936;-74
2023/04/14 06:32:22;;;;;;;;;;;;;;;9.93;100.00;99355.06;5053598;28;20390;-76
2023/04/14 06:34:47;;;;;;;;;;;;;;;10.03;100.00;99354.34;5052734;28;20012;-78
2023/04/14 06:37:15;;;;;;;;;;;;;;;10.17;100.00;99346.88;5054730;28;20000;-77
2023/04/14 06:39:40;;;;;;;;;;;;;;;10.30;100.00;99343.53;5054914;28;19997;-77
2023/04/14 06:42:06;;;;;;;;;;;;;;;10.40;100.00;99339.91;5054485;28;20323;-78
2023/04/14 06:44:32;;;;;;;;;;;;;;;10.50;100.00;99346.94;5055104;28;20251;-79
2023/04/14 06:47:00;;;;;;;;;;;;;;;10.53;100.00;99345.16;5053027;28;19917;-79
2023/04/14 06:49:25;;;;;;;;;;;;;;;10.56;100.00;99341.25;5054616;28;19912;-78
2023/04/14 06:51:50;;;;;;;;;;;;;;;10.54;100.00;99340.97;5054427;28;19912;-80
2023/04/14 06:54:16;;;;;;;;;;;;;;;10.52;100.00;99332.94;5052283;28;19963;-79
2023/04/14 06:56:42;;;;;;;;;;;;;;;10.43;100.00;99336.03;5054883;28;20408;-80
2023/04/14 06:59:08;;;;;;;;;;;;;;;10.39;100.00;99334.72;5054431;28;19917;-78
2023/04/14 07:01:35;;;;;;;;;;;;;;;10.28;100.00;99340.41;5058073;28;19913;-79
2023/04/14 07:04:02;;;;;;;;;;;;;;;10.30;100.00;99334.94;5054234;28;20290;-78
2023/04/14 07:06:27;;;;;;;;;;;;;;;10.34;100.00;99332.63;5054368;28;20011;-79
2023/04/14 07:08:55;;;;;;;;;;;;;;;10.27;100.00;99327.44;5053138;28;20374;-78
2023/04/14 07:11:20;;;;;;;;;;;;;;;10.13;100.00;99332.06;5046842;28;19998;-75
2023/04/14 07:13:46;;;;;;;;;;;;;;;10.14;100.00;99319.31;5047299;28;20311;-76
2023/04/14 07:16:11;;;;;;;;;;;;;;;10.06;100.00;99319.06;5064970;28;19924;-75
2023/04/14 07:18:38;;;;;;;;;;;;;;;10.13;100.00;99326.34;5072592;28;19913;-78
2023/04/14 07:21:04;;;;;;;;;;;;;;;10.18;100.00;99328.44;5067918;28;19963;-77
2023/04/14 07:23:32;;;;;;;;;;;;;;;10.24;100.00;99319.88;5053166;28;19928;-77
2023/04/14 07:25:58;;;;;;;;;;;;;;;10.29;100.00;99330.53;5054135;28;20004;-80
2023/04/14 07:28:25;;;;;;;;;;;;;;;10.35;100.00;99319.91;5052741;28;19948;-78
2023/04/14 07:30:51;;;;;;;;;;;;;;;10.36;100.00;99330.03;5052651;28;19923;-77
2023/04/14 07:33:18;;;;;;;;;;;;;;;10.36;100.00;99335.75;5052772;28;20006;-79
2023/04/14 07:35:44;;;;;;;;;;;;;;;10.24;100.00;99331.28;5053661;28;19913;-79
2023/04/14 07:38:11;;;;;;;;;;;;;;;10.18;100.00;99336.22;5053315;28;19912;-78
2023/04/14 07:40:37;;;;;;;;;;;;;;;10.20;100.00;99334.41;5053722;28;20016;-79
2023/04/14 07:43:02;;;;;;;;;;;;;;;10.22;100.00;99333.91;5054134;28;19936;-79
2023/04/14 07:45:28;;;;;;;;;;;;;;;10.22;100.00;99343.25;5053441;28;20277;-76
2023/04/14 07:47:55;;;;;;;;;;;;;;;10.15;100.00;99328.69;5052220;28;20015;-77
2023/04/14 07:50:21;;;;;;;;;;;;;;;10.21;100.00;99332.34;5053965;28;19912;-77
2023/04/14 07:52:47;;;;;;;;;;;;;;;10.26;100.00;99325.88;5052161;28;20358;-71
2023/04/14 07:55:13;;;;;;;;;;;;;;;10.11;100.00;99318.28;5052847;28;20045;-74
2023/04/14 07:57:40;;;;;;;;;;;;;;;9.99;100.00;99325.25;5053774;28;20381;-74
2023/04/14 08:00:11;;;;;;;;;;;;;;;9.79;100.00;99311.16;5051999;28;19947;-74
2023/04/14 08:02:38;;;;;;;;;;;;;;;9.74;100.00;99320.50;5053453;28;19940;-76
2023/04/14 08:05:04;;;;;;;;;;;;;;;9.75;100.00;99324.88;5052039;28;20359;-75
2023/04/14 08:07:30;;;;;;;;;;;;;;;9.78;100.00;99329.59;5053191;28;19921;-74
2023/04/14 08:09:56;;;;;;;;;;;;;;;9.94;100.00;99326.00;5053267;28;20047;-76
2023/04/14 08:12:23;;;;;;;;;;;;;;;10.06;100.00;99338.25;5053381;28;20438;-79
2023/04/14 08:14:49;;;;;;;;;;;;;;;10.13;100.00;99337.00;5053774;28;20006;-76
2023/04/14 08:17:14;;;;;;;;;;;;;;;10.26;100.00;99337.28;5053226;28;20384;-73
2023/04/14 08:19:41;;;;;;;;;;;;;;;10.26;100.00;99340.91;5051833;28;19920;-75
2023/04/14 08:22:06;;;;;;;;;;;;;;;10.27;100.00;99336.78;5051766;28;19913;-75
2023/04/14 08:24:31;;;;;;;;;;;;;;;10.22;100.00;99333.91;5053126;28;19919;-76
2023/04/14 08:26:59;;;;;;;;;;;;;;;10.23;100.00;99329.75;5051668;28;19936;-78
2023/04/14 08:29:26;;;;;;;;;;;;;;;10.30;100.00;99334.94;5051860;28;19927;-77
2023/04/14 08:31:52;;;;;;;;;;;;;;;10.23;100.00;99327.69;5052874;28;20377;-76
2023/04/14 08:34:17;;;;;;;;;;;;;;;10.24;100.00;99326.38;5053250;28;19917;-76
2023/04/14 08:36:43;;;;;;;;;;;;;;;10.15;100.00;99332.31;5053433;28;20417;-76
2023/04/14 08:39:09;;;;;;;;;;;;;;;10.13;100.00;99325.56;5053070;28;19912;-75
2023/04/14 08:41:36;;;;;;;;;;;;;;;10.33;100.00;99319.66;5053240;28;19913;-75
2023/04/14 08:44:05;;;;;;;;;;;;;;;10.48;100.00;99320.22;5051659;28;19963;-73
2023/04/14 08:46:32;;;;;;;;;;;;;;;10.48;100.00;99308.78;5053077;28;19913;-75
2023/04/14 08:49:18;;;;;;;;;;;;;;;10.67;100.00;99324.13;5052903;28;19919;-74
2023/04/14 08:51:45;;;;;;;;;;;;;;;10.78;100.00;99318.41;5052972;28;19919;-73
2023/04/14 08:54:11;;;;;;;;;;;;;;;10.92;100.00;99311.69;5051261;28;20374;-73
2023/04/14 08:56:38;;;;;;;;;;;;;;;11.03;100.00;99310.09;5034761;28;19913;-75
2023/04/14 08:59:09;;;;;;;;;;;;;;;11.22;100.00;99314.03;5051498;28;20007;-73
2023/04/14 09:01:38;;;;;;;;;;;;;;;11.42;100.00;99316.56;5051499;28;19917;-75
2023/04/14 09:04:05;;;;;;;;;;;;;;;11.20;100.00;99317.41;5052530;28;19912;-74
2023/04/14 09:06:31;;;;;;;;;;;;;;;11.01;100.00;99310.63;5051138;28;19917;-79
2023/04/14 09:09:02;;;;;;;;;;;;;;;10.97;100.00;99310.88;5051732;28;20416;-81
2023/04/14 09:11:28;;;;;;;;;;;;;;;11.12;100.00;99304.94;5053416;28;19912;-82
2023/04/14 09:13:57;;;;;;;;;;;;;;;11.34;100.00;99304.13;5055476;28;19923;-81
2023/04/14 09:16:25;;;;;;;;;;;;;;;11.55;100.00;99308.25;5055016;28;20017;-77
2023/04/14 09:18:50;;;;;;;;;;;;;;;11.73;100.00;99301.94;5056039;28;20008;-75
2023/04/14 09:21:21;;;;;;;;;;;;;;;11.61;100.00;99306.16;5056946;28;20357;-77
2023/04/14 09:23:47;;;;;;;;;;;;;;;11.35;100.00;99277.88;5055394;28;19913;-76
2023/04/14 09:26:13;;;;;;;;;;;;;;;11.69;100.00;99297.78;5056987;28;19917;-79
2023/04/14 09:28:40;;;;;;;;;;;;;;;11.67;100.00;99303.25;5060378;28;20243;-82
2023/04/14 09:31:07;;;;;;;;;;;;;;;11.70;100.00;99299.34;5068691;28;19917;-82
2023/04/14 09:33:37;;;;;;;;;;;;;;;11.68;100.00;99296.22;5071889;28;19919;-80
2023/04/14 09:36:04;;;;;;;;;;;;;;;11.79;100.00;99282.66;5064059;28;19921;-82
2023/04/14 09:38:32;;;;;;;;;;;;;;;12.02;100.00;99285.41;5063792;28;19948;-81
2023/04/14 09:40:58;;;;;;;;;;;;;;;12.34;100.00;99285.78;5058786;28;19924;-80
2023/04/14 09:43:25;;;;;;;;;;;;;;;12.62;100.00;99287.16;5061005;28;19912;-79
2023/04/14 09:45:52;;;;;;;;;;;;;;;12.85;100.00;99295.63;5055376;28;19923;-78
2023/04/14 09:48:19;;;;;;;;;;;;;;;12.98;100.00;99287.94;5069948;28;19940;-77
2023/04/14 09:51:13;;;;;;;;;;;;;;;13.10;100.00;99283.63;5077519;28;19913;-81
2023/04/14 09:53:47;;;;;;;;;;;;;;;13.17;100.00;99281.50;5083885;28;19966;-80
2023/04/14 09:56:32;;;;;;;;;;;;;;;13.35;100.00;99281.56;5075942;28;19952;-77
2023/04/14 09:58:59;;;;;;;;;;;;;;;13.55;100.00;99278.25;5074977;28;19961;-77
2023/04/14 10:01:27;;;;;;;;;;;;;;;13.78;100.00;99284.53;5077628;28;19916;-81
2023/04/14 10:03:52;;;;;;;;;;;;;;;14.04;100.00;99281.06;5077077;28;20012;-79
2023/04/14 10:06:18;;;;;;;;;;;;;;;14.26;100.00;99282.84;5075752;28;19978;-80
2023/04/14 10:08:45;;;;;;;;;;;;;;;14.38;100.00;99282.16;5075826;28;19923;-79
2023/04/14 10:11:19;;;;;;;;;;;;;;;14.29;100.00;99291.16;5075918;28;20250;-78
2023/04/14 10:13:45;;;;;;;;;;;;;;;14.30;100.00;99275.47;5076489;28;19913;-80
2023/04/14 10:16:11;;;;;;;;;;;;;;;14.39;100.00;99275.09;5074270;28;20362;-79
2023/04/14 10:18:37;;;;;;;;;;;;;;;14.51;100.00;99272.81;5074920;28;20046;-77
2023/04/14 10:21:11;;;;;;;;;;;;;;;14.58;100.00;99282.91;5075671;28;19913;-80
2023/04/14 10:23:47;;;;;;;;;;;;;;;14.57;100.00;99267.00;5074951;28;19920;-77
2023/04/14 10:26:13;;;;;;;;;;;;;;;14.61;100.00;99267.47;5073989;28;19916;-77
2023/04/14 10:28:50;;;;;;;;;;;;;;;14.64;100.00;99272.91;5074153;28;19932;-78
2023/04/14 10:31:27;;;;;;;;;;;;;;;14.57;100.00;99267.00;5074106;28;20438;-77
2023/04/14 10:34:05;;;;;;;;;;;;;;;14.61;100.00;99267.47;5073963;28;19927;-77
2023/04/14 10:36:35;;;;;;;;;;;;;;;14.64;100.00;99263.50;5056807;28;19920;-79
2023/04/14 10:39:04;;;;;;;;;;;;;;;14.77;100.00;99257.81;5073898;28;19974;-78
2023/04/14 10:41:51;;;;;;;;;;;;;;;14.87;100.00;99250.31;5073544;28;19916;-78
2023/04/14 10:44:23;;;;;;;;;;;;;;;14.97;100.00;99253.56;5071895;28;20007;-80
2023/04/14 10:46:49;;;;;;;;;;;;;;;14.94;100.00;99246.00;5073646;28;20258;-81
2023/04/14 10:49:17;;;;;;;;;;;;;;;15.06;100.00;99244.50;5074089;28;19912;-81
2023/04/14 10:51:44;;;;;;;;;;;;;;;15.28;100.00;99239.09;5072722;28;20535;-82
2023/04/14 10:54:18;;;;;;;;;;;;;;;15.59;100.00;99240.38;5075443;28;19973;-82
2023/04/14 10:57:03;;;;;;;;;;;;;;;15.82;100.00;99246.44;5073638;28;20020;-82
2023/04/14 10:59:28;;;;;;;;;;;;;;;16.00;100.00;99245.56;5075345;28;19917;-82
2023/04/14 11:01:56;;;;;;;;;;;;;;;16.06;100.00;99245.41;5073346;28;19919;-80
2023/04/14 11:04:22;;;;;;;;;;;;;;;15.89;100.00;99240.03;5074376;28;19917;-83
2023/04/14 11:06:58;;;;;;;;;;;;;;;15.69;100.00;99232.84;5074618;28;20392;-81
2023/04/14 11:09:35;;;;;;;;;;;;;;;15.52;100.00;99228.69;5074662;28;19913;-84
2023/04/14 11:12:20;;;;;;;;;;;;;;;15.42;100.00;99216.06;5073566;28;19924;-86
2023/04/14 11:14:47;;;;;;;;;;;;;;;15.52;100.00;99212.19;5074283;28;19923;-78
2023/04/14 11:17:22;;;;;;;;;;;;;;;15.72;100.00;99228.06;5073215;28;20266;-80
2023/04/14 11:19:51;;;;;;;;;;;;;;;16.00;100.00;99221.72;5074295;28;20346;-78
2023/04/14 11:22:31;;;;;;;;;;;;;;;16.20;100.00;99212.38;5072899;28;19928;-79
2023/04/14 11:24:58;;;;;;;;;;;;;;;16.17;100.00;99229.97;5072975;28;19939;-78
2023/04/14 11:27:27;;;;;;;;;;;;;;;16.04;100.00;99222.16;5072293;28;20046;-77
2023/04/14 11:29:53;;;;;;;;;;;;;;;16.01;100.00;99215.38;5080626;28;19920;-77
2023/04/14 11:32:20;;;;;;;;;;;;;;;16.04;100.00;99210.63;5073893;28;19913;-76
2023/04/14 11:34:47;;;;;;;;;;;;;;;16.09;100.00;99206.84;5071653;28;20423;-80
2023/04/14 11:37:13;;;;;;;;;;;;;;;16.00;100.00;99210.97;5074122;28;19920;-77
2023/04/14 11:39:39;;;;;;;;;;;;;;;16.05;100.00;99201.44;5072162;28;19948;-82
2023/04/14 11:42:13;;;;;;;;;;;;;;;16.13;100.00;99201.50;5073553;28;19919;-79
2023/04/14 11:44:38;;;;;;;;;;;;;;;16.22;100.00;99192.38;5089720;28;19955;-79
2023/04/14 11:47:05;;;;;;;;;;;;;;;16.35;100.00;99192.31;5074016;28;20365;-79
2023/04/14 11:49:35;;;;;;;;;;;;;;;16.43;100.00;99189.53;5072043;28;19916;-79
2023/04/14 11:52:08;;;;;;;;;;;;;;;16.63;100.00;99188.03;5072557;28;19917;-77
2023/04/14 11:54:34;;;;;;;;;;;;;;;16.77;100.00;99183.72;5072123;28;20015;-80
2023/04/14 11:57:01;;;;;;;;;;;;;;;16.79;100.00;99187.63;5073911;28;20003;-87
2023/04/14 11:59:28;;;;;;;;;;;;;;;16.87;100.00;99182.66;5074487;28;19920;-85
2023/04/14 12:01:56;;;;;;;;;;;;;;;16.82;100.00;99177.03;5056729;28;19966;-88
2023/04/14 12:04:23;;;;;;;;;;;;;;;16.74;100.00;99168.34;5082279;28;19972;-85
2023/04/14 12:06:49;;;;;;;;;;;;;;;16.75;100.00;99163.31;5075766;28;19923;-85
2023/04/14 12:09:15;;;;;;;;;;;;;;;16.71;100.00;99160.78;5076464;28;19942;-85
2023/04/14 12:11:41;;;;;;;;;;;;;;;16.74;100.00;99156.00;5077741;28;19966;-78
2023/04/14 12:14:09;;;;;;;;;;;;;;;16.81;100.00;99161.06;5074138;28;19960;-79
2023/04/14 12:16:35;;;;;;;;;;;;;;;16.85;100.00;99153.59;5072029;28;19919;-80
2023/04/14 12:19:03;;;;;;;;;;;;;;;17.07;100.00;99142.78;5073765;28;19919;-77
2023/04/14 12:21:30;;;;;;;;;;;;;;;17.02;100.00;99141.59;5073425;28;19923;-78
2023/04/14 12:23:56;;;;;;;;;;;;;;;16.96;100.00;99144.66;5071932;28;19961;-79
2023/04/14 12:26:24;;;;;;;;;;;;;;;16.92;100.00;99138.47;5071991;28;19971;-78
2023/04/14 12:28:57;;;;;;;;;;;;;;;16.85;100.00;99132.63;5072037;28;19943;-80
2023/04/14 12:31:29;;;;;;;;;;;;;;;16.71;100.00;99128.28;5071548;28;19935;-79
2023/04/14 12:34:02;;;;;;;;;;;;;;;16.49;100.00;99130.41;5073214;28;19916;-76
2023/04/14 12:36:27;;;;;;;;;;;;;;;16.18;100.00;99119.88;5071917;28;19916;-75
2023/04/14 12:38:55;;;;;;;;;;;;;;;15.94;100.00;99118.09;5054109;28;19920;-79
2023/04/14 12:41:25;;;;;;;;;;;;;;;15.73;100.00;99111.53;5073319;28;19912;-80
2023/04/14 12:43:51;;;;;;;;;;;;;;;15.45;100.00;99111.34;5072323;28;19946;-82